sensor_id;sensor_type;location;lat;lon;timestamp;temperature;humidity
24049;DHT22;12250;50.956;4.746;2022-12-05T00:00:49;3.30;99.90
24049;DHT22;12250;50.956;4.746;2022-12-05T00:03:15;3.20;99.90
24049;DHT22;12250;50.956;4.746;2022-12-05T00:05:41;3.20;99.90
24049;DHT22;12250;50.956;4.746;2022-12-05T00:08:06;3.40;99.90
24049;DHT22;12250;50.956;4.746;2022-12-05T00:10:36;3.40;99.90
24049;DHT22;12250;50.956;4.746;2022-12-05T00:13:01;3.50;99.90
24049;DHT22;12250;50.956;4.746;2022-12-05T00:15:27;3.40;99.90
24049;DHT22;12250;50.956;4.746;2022-12-05T00:17:53;3.50;99.90
24049;DHT22;12250;50.956;4.746;2022-12-05T00:20:18;3.40;99.90
24049;DHT22;12250;50.956;4.746;2022-12-05T00:22:45;3.50;99.90
24049;DHT22;12250;50.956;4.746;2022-12-05T00:25:11;3.50;99.90
24049;DHT22;12250;50.956;4.746;2022-12-05T00:27:37;3.60;99.90
24049;DHT22;12250;50.956;4.746;2022-12-05T00:30:04;3.60;99.90
24049;DHT22;12250;50.956;4.746;2022-12-05T00:32:31;3.60;99.90
24049;DHT22;12250;50.956;4.746;2022-12-05T00:34:56;3.60;99.90
24049;DHT22;12250;50.956;4.746;2022-12-05T00:37:23;3.60;99.90
24049;DHT22;12250;50.956;4.746;2022-12-05T00:39:49;3.50;99.90
24049;DHT22;12250;50.956;4.746;2022-12-05T00:42:14;3.50;99.90
24049;DHT22;12250;50.956;4.746;2022-12-05T00:44:40;3.50;99.90
24049;DHT22;12250;50.956;4.746;2022-12-05T00:47:06;3.60;99.90
24049;DHT22;12250;50.956;4.746;2022-12-05T00:49:32;3.50;99.90
24049;DHT22;12250;50.956;4.746;2022-12-05T00:51:57;3.50;99.90
24049;DHT22;12250;50.956;4.746;2022-12-05T00:54:23;3.50;99.90
24049;DHT22;12250;50.956;4.746;2022-12-05T00:56:49;3.60;99.90
24049;DHT22;12250;50.956;4.746;2022-12-05T00:59:18;3.60;99.90
24049;DHT22;12250;50.956;4.746;2022-12-05T01:01:45;3.60;99.90
24049;DHT22;12250;50.956;4.746;2022-12-05T01:04:13;3.70;99.90
24049;DHT22;12250;50.956;4.746;2022-12-05T01:06:40;3.60;99.90
24049;DHT22;12250;50.956;4.746;2022-12-05T01:09:07;3.60;99.90
24049;DHT22;12250;50.956;4.746;2022-12-05T01:11:33;3.60;99.90
24049;DHT22;12250;50.956;4.746;2022-12-05T01:13:59;3.70;99.90
24049;DHT22;12250;50.956;4.746;2022-12-05T01:16:30;3.70;99.90
24049;DHT22;12250;50.956;4.746;2022-12-05T01:18:57;3.70;99.90
24049;DHT22;12250;50.956;4.746;2022-12-05T01:21:24;3.80;99.90
24049;DHT22;12250;50.956;4.746;2022-12-05T01:23:49;3.80;99.90
24049;DHT22;12250;50.956;4.746;2022-12-05T01:26:17;3.70;99.90
24049;DHT22;12250;50.956;4.746;2022-12-05T01:28:43;3.70;99.90
24049;DHT22;12250;50.956;4.746;2022-12-05T01:31:17;3.70;99.90
24049;DHT22;12250;50.956;4.746;2022-12-05T01:33:43;3.60;99.90
24049;DHT22;12250;50.956;4.746;2022-12-05T01:36:10;3.70;99.90
24049;DHT22;12250;50.956;4.746;2022-12-05T01:38:39;3.80;99.90
24049;DHT22;12250;50.956;4.746;2022-12-05T01:41:07;3.80;99.90
24049;DHT22;12250;50.956;4.746;2022-12-05T01:46:17;3.80;99.90
24049;DHT22;12250;50.956;4.746;2022-12-05T01:48:43;3.80;99.90
24049;DHT22;12250;50.956;4.746;2022-12-05T01:51:09;3.80;99.90
24049;DHT22;12250;50.956;4.746;2022-12-05T01:53:35;3.70;99.90
24049;DHT22;12250;50.956;4.746;2022-12-05T01:56:01;3.80;99.90
24049;DHT22;12250;50.956;4.746;2022-12-05T01:58:31;3.80;99.90
24049;DHT22;12250;50.956;4.746;2022-12-05T02:01:00;3.90;99.90
24049;DHT22;12250;50.956;4.746;2022-12-05T02:03:26;3.90;99.90
24049;DHT22;12250;50.956;4.746;2022-12-05T02:05:54;3.90;99.90
24049;DHT22;12250;50.956;4.746;2022-12-05T02:08:21;3.80;99.90
24049;DHT22;12250;50.956;4.746;2022-12-05T02:10:50;3.80;99.90
24049;DHT22;12250;50.956;4.746;2022-12-05T02:16:24;3.90;99.90
24049;DHT22;12250;50.956;4.746;2022-12-05T02:21:45;3.80;99.90
24049;DHT22;12250;50.956;4.746;2022-12-05T02:30:09;3.80;99.90
24049;DHT22;12250;50.956;4.746;2022-12-05T02:43:25;3.70;99.90
24049;DHT22;12250;50.956;4.746;2022-12-05T02:45:56;3.50;99.90
24049;DHT22;12250;50.956;4.746;2022-12-05T02:48:28;3.60;99.90
24049;DHT22;12250;50.956;4.746;2022-12-05T02:50:56;3.60;99.90
24049;DHT22;12250;50.956;4.746;2022-12-05T02:53:24;3.70;99.90
24049;DHT22;12250;50.956;4.746;2022-12-05T02:55:51;3.70;99.90
24049;DHT22;12250;50.956;4.746;2022-12-05T02:58:24;3.70;99.90
24049;DHT22;12250;50.956;4.746;2022-12-05T03:00:54;3.70;99.90
24049;DHT22;12250;50.956;4.746;2022-12-05T03:03:21;3.80;99.90
24049;DHT22;12250;50.956;4.746;2022-12-05T03:06:07;3.80;99.90
24049;DHT22;12250;50.956;4.746;2022-12-05T03:08:52;3.80;99.90
24049;DHT22;12250;50.956;4.746;2022-12-05T03:11:20;3.80;99.90
24049;DHT22;12250;50.956;4.746;2022-12-05T03:13:55;3.80;99.90
24049;DHT22;12250;50.956;4.746;2022-12-05T03:16:36;3.60;99.90
24049;DHT22;12250;50.956;4.746;2022-12-05T03:19:11;3.40;99.90
24049;DHT22;12250;50.956;4.746;2022-12-05T03:21:51;3.40;99.90
24049;DHT22;12250;50.956;4.746;2022-12-05T03:24:19;3.40;99.90
24049;DHT22;12250;50.956;4.746;2022-12-05T03:29:25;3.40;99.90
24049;DHT22;12250;50.956;4.746;2022-12-05T03:32:02;3.40;99.90
24049;DHT22;12250;50.956;4.746;2022-12-05T03:37:30;3.30;99.90
24049;DHT22;12250;50.956;4.746;2022-12-05T03:40:22;3.30;99.90
24049;DHT22;12250;50.956;4.746;2022-12-05T03:43:00;3.30;99.90
24049;DHT22;12250;50.956;4.746;2022-12-05T03:45:38;3.40;99.90
24049;DHT22;12250;50.956;4.746;2022-12-05T03:48:34;3.40;99.90
24049;DHT22;12250;50.956;4.746;2022-12-05T03:50:58;3.40;99.90
24049;DHT22;12250;50.956;4.746;2022-12-05T03:53:30;3.40;99.90
24049;DHT22;12250;50.956;4.746;2022-12-05T03:56:17;3.50;99.90
24049;DHT22;12250;50.956;4.746;2022-12-05T03:59:05;3.40;99.90
24049;DHT22;12250;50.956;4.746;2022-12-05T04:01:32;3.50;99.90
24049;DHT22;12250;50.956;4.746;2022-12-05T04:04:23;3.40;99.90
24049;DHT22;12250;50.956;4.746;2022-12-05T04:06:53;3.40;99.90
24049;DHT22;12250;50.956;4.746;2022-12-05T04:09:25;3.50;99.90
24049;DHT22;12250;50.956;4.746;2022-12-05T04:12:00;3.50;99.90
24049;DHT22;12250;50.956;4.746;2022-12-05T04:14:38;3.60;99.90
24049;DHT22;12250;50.956;4.746;2022-12-05T04:17:35;3.60;99.90
24049;DHT22;12250;50.956;4.746;2022-12-05T04:20:18;3.60;99.90
24049;DHT22;12250;50.956;4.746;2022-12-05T04:23:05;3.60;99.90
24049;DHT22;12250;50.956;4.746;2022-12-05T04:25:56;3.60;99.90
24049;DHT22;12250;50.956;4.746;2022-12-05T04:28:38;3.60;99.90
24049;DHT22;12250;50.956;4.746;2022-12-05T04:31:24;3.60;99.90
24049;DHT22;12250;50.956;4.746;2022-12-05T04:34:06;3.60;99.90
24049;DHT22;12250;50.956;4.746;2022-12-05T04:36:46;3.60;99.90
24049;DHT22;12250;50.956;4.746;2022-12-05T04:44:17;3.70;99.90
24049;DHT22;12250;50.956;4.746;2022-12-05T04:46:45;3.70;99.90
24049;DHT22;12250;50.956;4.746;2022-12-05T04:49:16;3.70;99.90
24049;DHT22;12250;50.956;4.746;2022-12-05T04:51:44;3.70;99.90
24049;DHT22;12250;50.956;4.746;2022-12-05T04:54:23;3.70;99.90
24049;DHT22;12250;50.956;4.746;2022-12-05T04:56:54;3.70;99.90
24049;DHT22;12250;50.956;4.746;2022-12-05T04:59:21;3.70;99.90
24049;DHT22;12250;50.956;4.746;2022-12-05T05:01:51;3.80;99.90
24049;DHT22;12250;50.956;4.746;2022-12-05T05:04:26;3.70;99.90
24049;DHT22;12250;50.956;4.746;2022-12-05T05:06:52;3.70;99.90
24049;DHT22;12250;50.956;4.746;2022-12-05T05:09:19;3.80;99.90
24049;DHT22;12250;50.956;4.746;2022-12-05T05:11:45;3.80;99.90
24049;DHT22;12250;50.956;4.746;2022-12-05T05:14:10;3.80;99.90
24049;DHT22;12250;50.956;4.746;2022-12-05T05:16:38;3.80;99.90
24049;DHT22;12250;50.956;4.746;2022-12-05T05:19:06;3.90;99.90
24049;DHT22;12250;50.956;4.746;2022-12-05T05:21:34;3.80;99.90
24049;DHT22;12250;50.956;4.746;2022-12-05T05:24:00;3.80;99.90
24049;DHT22;12250;50.956;4.746;2022-12-05T05:26:28;3.80;99.90
24049;DHT22;12250;50.956;4.746;2022-12-05T05:28:55;3.80;99.90
24049;DHT22;12250;50.956;4.746;2022-12-05T05:31:21;3.80;99.90
24049;DHT22;12250;50.956;4.746;2022-12-05T05:33:52;3.80;99.90
24049;DHT22;12250;50.956;4.746;2022-12-05T05:36:19;3.80;99.90
24049;DHT22;12250;50.956;4.746;2022-12-05T05:38:50;3.80;99.90
24049;DHT22;12250;50.956;4.746;2022-12-05T05:41:19;3.80;99.90
24049;DHT22;12250;50.956;4.746;2022-12-05T05:43:45;3.80;99.90
24049;DHT22;12250;50.956;4.746;2022-12-05T05:46:12;3.80;99.90
24049;DHT22;12250;50.956;4.746;2022-12-05T05:48:38;3.80;99.90
24049;DHT22;12250;50.956;4.746;2022-12-05T05:51:06;3.90;99.90
24049;DHT22;12250;50.956;4.746;2022-12-05T05:53:32;3.90;99.90
24049;DHT22;12250;50.956;4.746;2022-12-05T05:56:06;3.90;99.90
24049;DHT22;12250;50.956;4.746;2022-12-05T05:58:32;4.00;99.90
24049;DHT22;12250;50.956;4.746;2022-12-05T06:01:16;4.00;99.90
24049;DHT22;12250;50.956;4.746;2022-12-05T06:03:43;4.00;99.90
24049;DHT22;12250;50.956;4.746;2022-12-05T06:06:10;4.00;99.90
24049;DHT22;12250;50.956;4.746;2022-12-05T06:08:39;4.00;99.90
24049;DHT22;12250;50.956;4.746;2022-12-05T06:11:10;4.00;99.90
24049;DHT22;12250;50.956;4.746;2022-12-05T06:13:37;4.10;99.90
24049;DHT22;12250;50.956;4.746;2022-12-05T06:16:07;4.10;99.90
24049;DHT22;12250;50.956;4.746;2022-12-05T06:18:33;4.10;99.90
24049;DHT22;12250;50.956;4.746;2022-12-05T06:20:59;4.10;99.90
24049;DHT22;12250;50.956;4.746;2022-12-05T06:23:25;4.10;99.90
24049;DHT22;12250;50.956;4.746;2022-12-05T06:25:53;4.20;99.90
24049;DHT22;12250;50.956;4.746;2022-12-05T06:28:24;4.20;99.90
24049;DHT22;12250;50.956;4.746;2022-12-05T06:30:50;4.10;99.90
24049;DHT22;12250;50.956;4.746;2022-12-05T06:33:16;4.10;99.90
24049;DHT22;12250;50.956;4.746;2022-12-05T06:35:42;4.10;99.90
24049;DHT22;12250;50.956;4.746;2022-12-05T06:38:09;4.10;99.90
24049;DHT22;12250;50.956;4.746;2022-12-05T06:40:39;4.10;99.90
24049;DHT22;12250;50.956;4.746;2022-12-05T06:43:05;4.10;99.90
24049;DHT22;12250;50.956;4.746;2022-12-05T06:45:30;4.20;99.90
24049;DHT22;12250;50.956;4.746;2022-12-05T06:47:56;4.20;99.90
24049;DHT22;12250;50.956;4.746;2022-12-05T06:50:22;4.30;99.90
24049;DHT22;12250;50.956;4.746;2022-12-05T06:52:49;4.30;99.90
24049;DHT22;12250;50.956;4.746;2022-12-05T06:55:15;4.30;99.90
24049;DHT22;12250;50.956;4.746;2022-12-05T06:57:41;4.30;99.90
24049;DHT22;12250;50.956;4.746;2022-12-05T07:00:07;4.30;99.90
24049;DHT22;12250;50.956;4.746;2022-12-05T07:02:51;4.30;99.90
24049;DHT22;12250;50.956;4.746;2022-12-05T07:05:17;4.30;99.90
24049;DHT22;12250;50.956;4.746;2022-12-05T07:07:43;4.30;99.90
24049;DHT22;12250;50.956;4.746;2022-12-05T07:10:08;4.30;99.90
24049;DHT22;12250;50.956;4.746;2022-12-05T07:12:34;4.30;99.90
24049;DHT22;12250;50.956;4.746;2022-12-05T07:15:00;4.30;99.90
24049;DHT22;12250;50.956;4.746;2022-12-05T07:17:26;4.30;99.90
24049;DHT22;12250;50.956;4.746;2022-12-05T07:19:52;4.30;99.90
24049;DHT22;12250;50.956;4.746;2022-12-05T07:22:20;4.30;99.90
24049;DHT22;12250;50.956;4.746;2022-12-05T07:24:46;4.30;99.90
24049;DHT22;12250;50.956;4.746;2022-12-05T07:27:13;4.30;99.90
24049;DHT22;12250;50.956;4.746;2022-12-05T07:29:38;4.30;99.90
24049;DHT22;12250;50.956;4.746;2022-12-05T07:32:04;4.30;99.90
24049;DHT22;12250;50.956;4.746;2022-12-05T07:34:30;4.30;99.90
24049;DHT22;12250;50.956;4.746;2022-12-05T07:36:56;4.40;99.90
24049;DHT22;12250;50.956;4.746;2022-12-05T07:39:21;4.40;99.90
24049;DHT22;12250;50.956;4.746;2022-12-05T07:41:47;4.40;99.90
24049;DHT22;12250;50.956;4.746;2022-12-05T07:44:13;4.30;99.90
24049;DHT22;12250;50.956;4.746;2022-12-05T07:46:39;4.30;99.90
24049;DHT22;12250;50.956;4.746;2022-12-05T07:49:05;4.30;99.90
24049;DHT22;12250;50.956;4.746;2022-12-05T07:51:31;4.40;99.90
24049;DHT22;12250;50.956;4.746;2022-12-05T07:53:58;4.40;99.90
24049;DHT22;12250;50.956;4.746;2022-12-05T07:56:24;4.30;99.90
24049;DHT22;12250;50.956;4.746;2022-12-05T07:58:51;4.30;99.90
24049;DHT22;12250;50.956;4.746;2022-12-05T08:01:19;4.30;99.90
24049;DHT22;12250;50.956;4.746;2022-12-05T08:03:45;4.40;99.90
24049;DHT22;12250;50.956;4.746;2022-12-05T08:06:16;4.40;99.90
24049;DHT22;12250;50.956;4.746;2022-12-05T08:08:43;4.40;99.90
24049;DHT22;12250;50.956;4.746;2022-12-05T08:11:14;4.40;99.90
24049;DHT22;12250;50.956;4.746;2022-12-05T08:13:42;4.50;99.90
24049;DHT22;12250;50.956;4.746;2022-12-05T08:16:16;4.50;99.90
24049;DHT22;12250;50.956;4.746;2022-12-05T08:18:42;4.40;99.90
24049;DHT22;12250;50.956;4.746;2022-12-05T08:21:10;4.40;99.90
24049;DHT22;12250;50.956;4.746;2022-12-05T08:23:37;4.40;99.90
24049;DHT22;12250;50.956;4.746;2022-12-05T08:26:08;4.40;99.90
24049;DHT22;12250;50.956;4.746;2022-12-05T08:28:34;4.40;99.90
24049;DHT22;12250;50.956;4.746;2022-12-05T08:31:08;4.50;99.90
24049;DHT22;12250;50.956;4.746;2022-12-05T08:33:35;4.50;99.90
24049;DHT22;12250;50.956;4.746;2022-12-05T08:36:03;4.60;99.90
24049;DHT22;12250;50.956;4.746;2022-12-05T08:38:29;4.60;99.90
24049;DHT22;12250;50.956;4.746;2022-12-05T08:40:55;4.60;99.90
24049;DHT22;12250;50.956;4.746;2022-12-05T08:43:21;4.70;99.90
24049;DHT22;12250;50.956;4.746;2022-12-05T08:45:52;4.60;99.90
24049;DHT22;12250;50.956;4.746;2022-12-05T08:48:18;4.60;99.90
24049;DHT22;12250;50.956;4.746;2022-12-05T08:50:44;4.60;99.90
24049;DHT22;12250;50.956;4.746;2022-12-05T08:53:10;4.60;99.90
24049;DHT22;12250;50.956;4.746;2022-12-05T08:55:36;4.70;99.90
24049;DHT22;12250;50.956;4.746;2022-12-05T08:58:02;4.80;99.90
24049;DHT22;12250;50.956;4.746;2022-12-05T09:00:28;4.90;99.90
24049;DHT22;12250;50.956;4.746;2022-12-05T09:02:53;5.00;99.90
24049;DHT22;12250;50.956;4.746;2022-12-05T09:05:19;5.10;99.90
24049;DHT22;12250;50.956;4.746;2022-12-05T09:07:44;5.10;99.90
24049;DHT22;12250;50.956;4.746;2022-12-05T09:10:10;5.10;99.90
24049;DHT22;12250;50.956;4.746;2022-12-05T09:12:37;5.10;99.90
24049;DHT22;12250;50.956;4.746;2022-12-05T09:15:05;5.10;99.90
24049;DHT22;12250;50.956;4.746;2022-12-05T09:17:31;5.20;99.90
24049;DHT22;12250;50.956;4.746;2022-12-05T09:19:57;5.20;99.90
24049;DHT22;12250;50.956;4.746;2022-12-05T09:22:22;5.10;99.90
24049;DHT22;12250;50.956;4.746;2022-12-05T09:24:48;5.10;99.90
24049;DHT22;12250;50.956;4.746;2022-12-05T09:27:14;5.10;99.90
24049;DHT22;12250;50.956;4.746;2022-12-05T09:29:40;5.30;99.90
24049;DHT22;12250;50.956;4.746;2022-12-05T09:32:05;5.40;99.90
24049;DHT22;12250;50.956;4.746;2022-12-05T09:34:31;5.40;99.90
24049;DHT22;12250;50.956;4.746;2022-12-05T09:36:57;5.40;99.90
24049;DHT22;12250;50.956;4.746;2022-12-05T09:39:25;5.40;99.90
24049;DHT22;12250;50.956;4.746;2022-12-05T09:45:36;5.50;99.90
24049;DHT22;12250;50.956;4.746;2022-12-05T09:50:44;5.20;99.90
24049;DHT22;12250;50.956;4.746;2022-12-05T09:53:27;5.20;99.90
24049;DHT22;12250;50.956;4.746;2022-12-05T09:56:03;5.30;99.90
24049;DHT22;12250;50.956;4.746;2022-12-05T10:09:59;5.30;99.90
24049;DHT22;12250;50.956;4.746;2022-12-05T10:17:49;5.40;99.90
24049;DHT22;12250;50.956;4.746;2022-12-05T10:20:27;5.50;99.90
24049;DHT22;12250;50.956;4.746;2022-12-05T10:22:57;5.50;99.90
24049;DHT22;12250;50.956;4.746;2022-12-05T10:25:26;5.50;99.90
24049;DHT22;12250;50.956;4.746;2022-12-05T10:27:55;5.40;99.90
24049;DHT22;12250;50.956;4.746;2022-12-05T10:30:32;5.40;99.90
24049;DHT22;12250;50.956;4.746;2022-12-05T10:33:12;5.50;99.90
24049;DHT22;12250;50.956;4.746;2022-12-05T10:35:40;5.50;99.90
24049;DHT22;12250;50.956;4.746;2022-12-05T10:38:19;5.60;99.90
24049;DHT22;12250;50.956;4.746;2022-12-05T10:40:50;5.50;99.90
24049;DHT22;12250;50.956;4.746;2022-12-05T10:43:24;5.60;99.90
24049;DHT22;12250;50.956;4.746;2022-12-05T10:45:50;5.50;99.90
24049;DHT22;12250;50.956;4.746;2022-12-05T10:48:17;5.40;99.90
24049;DHT22;12250;50.956;4.746;2022-12-05T10:50:45;5.30;99.90
24049;DHT22;12250;50.956;4.746;2022-12-05T10:53:44;5.20;99.90
24049;DHT22;12250;50.956;4.746;2022-12-05T10:59:07;5.40;99.90
24049;DHT22;12250;50.956;4.746;2022-12-05T11:01:35;5.40;99.90
24049;DHT22;12250;50.956;4.746;2022-12-05T11:04:28;5.40;99.90
24049;DHT22;12250;50.956;4.746;2022-12-05T11:06:52;5.40;99.90
24049;DHT22;12250;50.956;4.746;2022-12-05T11:09:24;5.40;99.90
24049;DHT22;12250;50.956;4.746;2022-12-05T11:12:20;5.50;99.90
24049;DHT22;12250;50.956;4.746;2022-12-05T11:15:08;5.70;99.90
24049;DHT22;12250;50.956;4.746;2022-12-05T11:17:54;5.80;99.90
24049;DHT22;12250;50.956;4.746;2022-12-05T11:22:48;5.80;99.90
24049;DHT22;12250;50.956;4.746;2022-12-05T11:25:31;5.70;99.90
24049;DHT22;12250;50.956;4.746;2022-12-05T11:28:00;5.70;99.90
24049;DHT22;12250;50.956;4.746;2022-12-05T11:31:05;5.70;99.90
24049;DHT22;12250;50.956;4.746;2022-12-05T11:33:34;5.70;99.90
24049;DHT22;12250;50.956;4.746;2022-12-05T11:38:31;5.50;99.90
24049;DHT22;12250;50.956;4.746;2022-12-05T12:05:27;5.70;99.90
24049;DHT22;12250;50.956;4.746;2022-12-05T12:08:07;5.70;99.90
24049;DHT22;12250;50.956;4.746;2022-12-05T12:16:16;5.70;99.90
24049;DHT22;12250;50.956;4.746;2022-12-05T12:18:49;5.80;99.90
24049;DHT22;12250;50.956;4.746;2022-12-05T12:22:13;5.90;99.90
24049;DHT22;12250;50.956;4.746;2022-12-05T12:30:21;6.10;99.90
24049;DHT22;12250;50.956;4.746;2022-12-05T12:33:09;6.10;99.90
24049;DHT22;12250;50.956;4.746;2022-12-05T12:35:49;6.10;99.90
24049;DHT22;12250;50.956;4.746;2022-12-05T12:49:26;5.90;99.90
24049;DHT22;12250;50.956;4.746;2022-12-05T12:52:03;5.90;99.90
24049;DHT22;12250;50.956;4.746;2022-12-05T12:54:56;5.80;99.90
24049;DHT22;12250;50.956;4.746;2022-12-05T12:57:52;5.70;99.90
24049;DHT22;12250;50.956;4.746;2022-12-05T13:00:45;5.70;99.90
24049;DHT22;12250;50.956;4.746;2022-12-05T13:03:33;5.70;99.90
24049;DHT22;12250;50.956;4.746;2022-12-05T13:06:09;5.70;99.90
24049;DHT22;12250;50.956;4.746;2022-12-05T13:08:56;5.80;99.90
24049;DHT22;12250;50.956;4.746;2022-12-05T13:11:23;5.90;99.90
24049;DHT22;12250;50.956;4.746;2022-12-05T13:13:54;5.90;99.90
24049;DHT22;12250;50.956;4.746;2022-12-05T13:16:31;5.90;99.90
24049;DHT22;12250;50.956;4.746;2022-12-05T13:18:59;5.90;99.90
24049;DHT22;12250;50.956;4.746;2022-12-05T13:21:26;5.80;99.90
24049;DHT22;12250;50.956;4.746;2022-12-05T13:23:55;5.90;99.90
24049;DHT22;12250;50.956;4.746;2022-12-05T13:26:23;5.90;99.90
24049;DHT22;12250;50.956;4.746;2022-12-05T13:28:53;5.90;99.90
24049;DHT22;12250;50.956;4.746;2022-12-05T13:31:43;6.00;99.90
24049;DHT22;12250;50.956;4.746;2022-12-05T13:34:45;6.00;99.90
24049;DHT22;12250;50.956;4.746;2022-12-05T13:37:19;6.00;99.90
24049;DHT22;12250;50.956;4.746;2022-12-05T13:40:04;5.90;99.90
24049;DHT22;12250;50.956;4.746;2022-12-05T13:42:59;5.90;99.90
24049;DHT22;12250;50.956;4.746;2022-12-05T13:45:26;5.80;99.90
24049;DHT22;12250;50.956;4.746;2022-12-05T13:53:30;5.70;99.90
24049;DHT22;12250;50.956;4.746;2022-12-05T13:56:23;5.80;99.90
24049;DHT22;12250;50.956;4.746;2022-12-05T13:58:54;5.90;99.90
24049;DHT22;12250;50.956;4.746;2022-12-05T14:03:59;6.00;99.90
24049;DHT22;12250;50.956;4.746;2022-12-05T14:17:40;6.30;99.90
24049;DHT22;12250;50.956;4.746;2022-12-05T14:28:55;6.00;99.90
24049;DHT22;12250;50.956;4.746;2022-12-05T14:31:44;5.90;99.90
24049;DHT22;12250;50.956;4.746;2022-12-05T14:34:16;5.90;99.90
24049;DHT22;12250;50.956;4.746;2022-12-05T14:39:27;5.80;99.90
24049;DHT22;12250;50.956;4.746;2022-12-05T14:41:59;5.70;99.90
24049;DHT22;12250;50.956;4.746;2022-12-05T14:44:26;5.70;99.90
24049;DHT22;12250;50.956;4.746;2022-12-05T14:46:58;5.70;99.90
24049;DHT22;12250;50.956;4.746;2022-12-05T14:52:29;5.70;99.90
24049;DHT22;12250;50.956;4.746;2022-12-05T14:55:11;5.60;99.90
24049;DHT22;12250;50.956;4.746;2022-12-05T14:57:47;5.60;99.90
24049;DHT22;12250;50.956;4.746;2022-12-05T15:00:22;5.60;99.90
24049;DHT22;12250;50.956;4.746;2022-12-05T15:02:50;5.60;99.90
24049;DHT22;12250;50.956;4.746;2022-12-05T15:05:24;5.60;99.90
24049;DHT22;12250;50.956;4.746;2022-12-05T15:07:51;5.60;99.90
24049;DHT22;12250;50.956;4.746;2022-12-05T15:10:32;5.50;99.90
24049;DHT22;12250;50.956;4.746;2022-12-05T15:13:13;5.50;99.90
24049;DHT22;12250;50.956;4.746;2022-12-05T15:29:06;5.40;99.90
24049;DHT22;12250;50.956;4.746;2022-12-05T15:31:36;5.40;99.90
24049;DHT22;12250;50.956;4.746;2022-12-05T15:34:11;5.40;99.90
24049;DHT22;12250;50.956;4.746;2022-12-05T15:36:54;5.40;99.90
24049;DHT22;12250;50.956;4.746;2022-12-05T15:39:24;5.40;99.90
24049;DHT22;12250;50.956;4.746;2022-12-05T15:41:55;5.40;99.90
24049;DHT22;12250;50.956;4.746;2022-12-05T15:44:26;5.40;99.90
24049;DHT22;12250;50.956;4.746;2022-12-05T15:46:53;5.40;99.90
24049;DHT22;12250;50.956;4.746;2022-12-05T15:49:25;5.40;99.90
24049;DHT22;12250;50.956;4.746;2022-12-05T15:52:14;5.40;99.90
24049;DHT22;12250;50.956;4.746;2022-12-05T15:54:42;5.40;99.90
24049;DHT22;12250;50.956;4.746;2022-12-05T15:57:16;5.40;99.90
24049;DHT22;12250;50.956;4.746;2022-12-05T15:59:47;5.40;99.90
24049;DHT22;12250;50.956;4.746;2022-12-05T16:05:26;5.50;99.90
24049;DHT22;12250;50.956;4.746;2022-12-05T16:07:54;5.50;99.90
24049;DHT22;12250;50.956;4.746;2022-12-05T16:10:20;5.50;99.90
24049;DHT22;12250;50.956;4.746;2022-12-05T16:12:47;5.50;99.90
24049;DHT22;12250;50.956;4.746;2022-12-05T16:17:47;5.60;99.90
24049;DHT22;12250;50.956;4.746;2022-12-05T16:22:46;5.60;99.90
24049;DHT22;12250;50.956;4.746;2022-12-05T16:25:20;5.60;99.90
24049;DHT22;12250;50.956;4.746;2022-12-05T16:28:14;5.60;99.90
24049;DHT22;12250;50.956;4.746;2022-12-05T16:30:54;5.60;99.90
24049;DHT22;12250;50.956;4.746;2022-12-05T16:33:21;5.60;99.90
24049;DHT22;12250;50.956;4.746;2022-12-05T16:35:47;5.70;99.90
24049;DHT22;12250;50.956;4.746;2022-12-05T16:38:25;5.70;99.90
24049;DHT22;12250;50.956;4.746;2022-12-05T16:40:59;5.70;99.90
24049;DHT22;12250;50.956;4.746;2022-12-05T16:45:54;5.60;99.90
24049;DHT22;12250;50.956;4.746;2022-12-05T16:48:21;5.60;99.90
24049;DHT22;12250;50.956;4.746;2022-12-05T16:50:48;5.60;99.90
24049;DHT22;12250;50.956;4.746;2022-12-05T16:53:20;5.60;99.90
24049;DHT22;12250;50.956;4.746;2022-12-05T16:55:47;5.70;99.90
24049;DHT22;12250;50.956;4.746;2022-12-05T16:58:22;5.60;99.90
24049;DHT22;12250;50.956;4.746;2022-12-05T17:00:48;5.60;99.90
24049;DHT22;12250;50.956;4.746;2022-12-05T17:03:14;5.60;99.90
24049;DHT22;12250;50.956;4.746;2022-12-05T17:05:40;5.60;99.90
24049;DHT22;12250;50.956;4.746;2022-12-05T17:08:05;5.70;99.90
24049;DHT22;12250;50.956;4.746;2022-12-05T17:10:31;5.70;99.90
24049;DHT22;12250;50.956;4.746;2022-12-05T17:12:57;5.60;99.90
24049;DHT22;12250;50.956;4.746;2022-12-05T17:15:28;5.60;99.90
24049;DHT22;12250;50.956;4.746;2022-12-05T17:17:53;5.60;99.90
24049;DHT22;12250;50.956;4.746;2022-12-05T17:20:19;5.60;99.90
24049;DHT22;12250;50.956;4.746;2022-12-05T17:22:45;5.60;99.90
24049;DHT22;12250;50.956;4.746;2022-12-05T17:25:22;5.70;99.90
24049;DHT22;12250;50.956;4.746;2022-12-05T17:27:51;5.70;99.90
24049;DHT22;12250;50.956;4.746;2022-12-05T17:30:17;5.70;99.90
24049;DHT22;12250;50.956;4.746;2022-12-05T17:32:42;5.60;99.90
24049;DHT22;12250;50.956;4.746;2022-12-05T17:35:14;5.60;99.90
24049;DHT22;12250;50.956;4.746;2022-12-05T17:37:40;5.60;99.90
24049;DHT22;12250;50.956;4.746;2022-12-05T17:40:06;5.60;99.90
24049;DHT22;12250;50.956;4.746;2022-12-05T17:42:32;5.60;99.90
24049;DHT22;12250;50.956;4.746;2022-12-05T17:44:58;5.60;99.90
24049;DHT22;12250;50.956;4.746;2022-12-05T17:47:23;5.60;99.90
24049;DHT22;12250;50.956;4.746;2022-12-05T17:49:49;5.60;99.90
24049;DHT22;12250;50.956;4.746;2022-12-05T17:52:15;5.70;99.90
24049;DHT22;12250;50.956;4.746;2022-12-05T17:54:41;5.70;99.90
24049;DHT22;12250;50.956;4.746;2022-12-05T17:57:06;5.70;99.90
24049;DHT22;12250;50.956;4.746;2022-12-05T17:59:32;5.70;99.90
24049;DHT22;12250;50.956;4.746;2022-12-05T18:01:58;5.70;99.90
24049;DHT22;12250;50.956;4.746;2022-12-05T18:04:23;5.70;99.90
24049;DHT22;12250;50.956;4.746;2022-12-05T18:06:49;5.70;99.90
24049;DHT22;12250;50.956;4.746;2022-12-05T18:09:15;5.70;99.90
24049;DHT22;12250;50.956;4.746;2022-12-05T18:11:40;5.70;99.90
24049;DHT22;12250;50.956;4.746;2022-12-05T18:14:06;5.70;99.90
24049;DHT22;12250;50.956;4.746;2022-12-05T18:16:32;5.70;99.90
24049;DHT22;12250;50.956;4.746;2022-12-05T18:18:57;5.70;99.90
24049;DHT22;12250;50.956;4.746;2022-12-05T18:21:23;5.70;99.90
24049;DHT22;12250;50.956;4.746;2022-12-05T18:23:50;5.70;99.90
24049;DHT22;12250;50.956;4.746;2022-12-05T18:26:16;5.80;99.90
24049;DHT22;12250;50.956;4.746;2022-12-05T18:28:41;5.80;99.90
24049;DHT22;12250;50.956;4.746;2022-12-05T18:31:12;5.80;99.90
24049;DHT22;12250;50.956;4.746;2022-12-05T18:33:44;5.80;99.90
24049;DHT22;12250;50.956;4.746;2022-12-05T18:36:13;5.70;99.90
24049;DHT22;12250;50.956;4.746;2022-12-05T18:38:40;5.80;99.90
24049;DHT22;12250;50.956;4.746;2022-12-05T18:41:07;5.80;99.90
24049;DHT22;12250;50.956;4.746;2022-12-05T18:43:33;5.80;99.90
24049;DHT22;12250;50.956;4.746;2022-12-05T18:46:00;5.80;99.90
24049;DHT22;12250;50.956;4.746;2022-12-05T18:48:29;5.80;99.90
24049;DHT22;12250;50.956;4.746;2022-12-05T18:51:18;5.80;99.90
24049;DHT22;12250;50.956;4.746;2022-12-05T18:53:46;5.80;99.90
24049;DHT22;12250;50.956;4.746;2022-12-05T18:56:17;5.80;99.90
24049;DHT22;12250;50.956;4.746;2022-12-05T18:58:44;5.80;99.90